createdAt,value
2023-01-23T00:01:12.235Z,102121.81
2023-01-23T00:06:07.571Z,102146.78
2023-01-23T00:11:00.845Z,102242.03
2023-01-23T00:15:55.441Z,102246.53
2023-01-23T00:20:48.691Z,102245.19
2023-01-23T00:25:42.013Z,102126.63
2023-01-23T00:30:35.476Z,102274.34
2023-01-23T00:35:35.717Z,102250.72
2023-01-23T00:40:29.016Z,102108.19
2023-01-23T00:45:22.244Z,102154.28
2023-01-23T00:50:15.883Z,102233.81
2023-01-23T00:55:11.711Z,102217.81
2023-01-23T01:00:06.360Z,102247.66
2023-01-23T01:04:59.803Z,102287.72
2023-01-23T01:09:53.227Z,102265.84
2023-01-23T01:14:47.834Z,102278.63
2023-01-23T01:19:41.789Z,102282.84
2023-01-23T01:24:35.205Z,102205.88
2023-01-23T01:29:28.475Z,102224.69
2023-01-23T01:34:23.743Z,102256.13
2023-01-23T01:39:17.022Z,102243.53
2023-01-23T01:44:15.989Z,102247.69
2023-01-23T01:49:12.685Z,102266.50
2023-01-23T01:54:13.292Z,102155.53
2023-01-23T01:59:07.767Z,102265.03
2023-01-23T02:04:02.208Z,102261.75
2023-01-23T02:09:03.946Z,102229.81
2023-01-23T02:13:59.151Z,102231.91
2023-01-23T02:18:57.610Z,102288.03
2023-01-23T02:24:03.182Z,102262.78
2023-01-23T02:28:59.414Z,102306.38
2023-01-23T02:33:58.719Z,102302.78
2023-01-23T02:39:04.066Z,102307.28
2023-01-23T02:44:02.467Z,102311.66
2023-01-23T02:48:56.189Z,102260.78
2023-01-23T02:53:51.250Z,102306.84
2023-01-23T02:59:02.645Z,102254.44
2023-01-23T03:03:57.159Z,102329.03
2023-01-23T03:08:50.413Z,102303.00
2023-01-23T03:13:43.670Z,102325.94
2023-01-23T03:18:52.836Z,102337.16
2023-01-23T03:23:48.889Z,102337.28
2023-01-23T03:28:59.856Z,102286.44
2023-01-23T03:33:53.902Z,102298.88
2023-01-23T03:39:02.416Z,102333.13
2023-01-23T03:43:57.598Z,102342.91
2023-01-23T03:48:52.129Z,102351.72
2023-01-23T03:53:45.623Z,102315.44
2023-01-23T03:58:40.290Z,102299.69
2023-01-23T04:03:33.831Z,102365.41
2023-01-23T04:08:27.296Z,102378.50
2023-01-23T04:13:21.300Z,102370.00
2023-01-23T04:18:16.120Z,102375.34
2023-01-23T04:23:09.353Z,102286.38
2023-01-23T04:28:03.820Z,102278.03
2023-01-23T04:32:57.230Z,102391.34
2023-01-23T04:37:51.784Z,102388.22
2023-01-23T04:42:45.304Z,102399.44
2023-01-23T04:47:53.152Z,102345.31
2023-01-23T04:52:46.504Z,102383.78
2023-01-23T04:57:41.860Z,102364.41
2023-01-23T05:02:47.539Z,102379.94
2023-01-23T05:07:41.969Z,102340.16
2023-01-23T05:12:39.541Z,102422.81
2023-01-23T05:17:34.668Z,102400.13
2023-01-23T05:22:28.807Z,102418.97
2023-01-23T05:27:22.072Z,102433.56
2023-01-23T05:32:16.994Z,102407.28
2023-01-23T05:37:11.654Z,102387.00
2023-01-23T05:42:07.018Z,102451.00
2023-01-23T05:47:28.583Z,102457.09
2023-01-23T05:52:27.279Z,102453.06
2023-01-23T05:57:21.043Z,102473.50
2023-01-23T06:02:32.934Z,102425.16
2023-01-23T06:07:50.711Z,102456.94
2023-01-23T06:12:44.110Z,102470.63
2023-01-23T06:17:37.419Z,102504.69
2023-01-23T06:22:31.576Z,102378.78
2023-01-23T06:27:33.783Z,102478.53
2023-01-23T06:32:30.594Z,102502.53
2023-01-23T06:37:24.242Z,102514.50
2023-01-23T06:42:17.569Z,102532.53
2023-01-23T06:47:16.803Z,102492.41
2023-01-23T06:52:12.376Z,102449.88
2023-01-23T06:57:05.900Z,102552.31
2023-01-23T07:02:00.356Z,102571.41
2023-01-23T07:07:07.051Z,102567.25
2023-01-23T07:12:00.561Z,102541.75
2023-01-23T07:16:56.107Z,102510.38
2023-01-23T07:21:51.107Z,102583.75
2023-01-23T07:26:45.732Z,102548.81
2023-01-23T07:31:38.950Z,102581.25
2023-01-23T07:36:32.313Z,102537.78
2023-01-23T07:41:25.701Z,102494.44
2023-01-23T07:46:22.206Z,102551.66
2023-01-23T07:51:18.185Z,102535.38
2023-01-23T07:56:11.467Z,102548.25
2023-01-23T08:01:09.862Z,102529.38
2023-01-23T08:06:04.609Z,102579.81
2023-01-23T08:10:57.894Z,102558.53
2023-01-23T08:15:53.528Z,102556.81
2023-01-23T08:20:54.243Z,102559.47
2023-01-23T08:25:55.083Z,102596.00
2023-01-23T08:30:48.381Z,102599.59
2023-01-23T08:35:41.558Z,102561.25
2023-01-23T08:40:34.861Z,102602.16
2023-01-23T08:45:29.524Z,102568.03
2023-01-23T08:50:24.844Z,102616.75
2023-01-23T08:55:18.195Z,102456.31
2023-01-23T09:00:12.780Z,102578.47
2023-01-23T09:05:08.668Z,102603.16
2023-01-23T09:10:01.898Z,102622.03
2023-01-23T09:14:55.079Z,102612.53
2023-01-23T09:19:48.332Z,102607.38
2023-01-23T09:24:42.935Z,102562.91
2023-01-23T09:29:36.053Z,102597.00
2023-01-23T09:34:29.347Z,102550.78
2023-01-23T09:39:22.556Z,102609.63
2023-01-23T09:44:21.634Z,102601.84
2023-01-23T09:49:22.125Z,102556.56
2023-01-23T09:54:26.818Z,102600.94
2023-01-23T09:59:29.275Z,102610.19
2023-01-23T10:04:23.582Z,102531.53
2023-01-23T10:09:36.959Z,102579.97
2023-01-23T10:14:50.936Z,102575.72
2023-01-23T10:20:01.150Z,102496.44
2023-01-23T10:24:56.800Z,102597.84
2023-01-23T10:29:57.572Z,102477.81
2023-01-23T10:34:57.314Z,102609.22
2023-01-23T10:39:55.048Z,102607.63
2023-01-23T10:44:48.919Z,102611.22
2023-01-23T10:49:45.938Z,102574.41
2023-01-23T10:54:47.492Z,102548.13
2023-01-23T10:59:51.125Z,102560.97
2023-01-23T11:04:48.080Z,102614.00
2023-01-23T11:09:49.967Z,102576.31
2023-01-23T11:14:43.078Z,102601.19
2023-01-23T11:19:38.640Z,102605.66
2023-01-23T11:24:41.024Z,102575.84
2023-01-23T11:29:55.012Z,102562.34
2023-01-23T11:34:53.205Z,102576.03
2023-01-23T11:39:55.969Z,102585.44
2023-01-23T11:44:52.764Z,102561.66
2023-01-23T11:50:03.569Z,102594.09
2023-01-23T11:55:15.024Z,102507.88
2023-01-23T12:00:23.364Z,102601.94
2023-01-23T12:05:48.354Z,102607.16
2023-01-23T12:10:54.598Z,102580.66
2023-01-23T12:16:01.741Z,102577.31
2023-01-23T12:21:04.466Z,102618.34
2023-01-23T12:26:08.937Z,102568.78
2023-01-23T12:31:14.767Z,102623.50
2023-01-23T12:36:21.934Z,102620.13
2023-01-23T12:41:23.930Z,102572.38
2023-01-23T12:46:21.003Z,102621.09
2023-01-23T12:51:19.786Z,102612.78
2023-01-23T12:56:22.289Z,102618.81
2023-01-23T13:01:35.914Z,102601.03
2023-01-23T13:06:47.273Z,102598.47
2023-01-23T13:11:47.813Z,102638.59
2023-01-23T13:16:50.018Z,102633.63
2023-01-23T13:22:04.910Z,102646.50
2023-01-23T13:26:59.530Z,102638.09
2023-01-23T13:32:24.362Z,102598.81
2023-01-23T13:37:51.451Z,102584.38
2023-01-23T13:42:46.254Z,102601.56
2023-01-23T14:25:17.697Z,102678.16
2023-01-23T14:30:19.310Z,102661.94
2023-01-23T14:35:21.245Z,102450.91
2023-01-23T14:40:26.580Z,102564.59
2023-01-23T14:45:22.606Z,102600.50
2023-01-23T14:50:20.847Z,102677.47
2023-01-23T14:55:29.868Z,102572.34
2023-01-23T15:00:29.908Z,102663.91
2023-01-23T15:05:27.032Z,102644.28
2023-01-23T15:10:24.343Z,102687.13
2023-01-23T15:15:21.735Z,102540.06
2023-01-23T15:20:38.797Z,102536.69
2023-01-23T15:25:37.841Z,102543.59
2023-01-23T15:30:38.347Z,102606.06
2023-01-23T15:35:34.506Z,102599.22
2023-01-23T15:40:29.766Z,102590.66
2023-01-23T15:45:23.334Z,102712.19
2023-01-23T15:50:17.453Z,102625.81
2023-01-23T15:55:13.682Z,102615.63
2023-01-23T16:00:16.072Z,102720.91
2023-01-23T16:05:12.701Z,102760.38
2023-01-23T16:10:19.991Z,102732.09
2023-01-23T16:15:26.300Z,102736.41
2023-01-23T16:20:27.691Z,102521.63
2023-01-23T16:25:41.982Z,102693.63
2023-01-23T16:30:37.985Z,102775.00
2023-01-23T16:35:33.992Z,102775.03
2023-01-23T16:40:29.067Z,102682.59
2023-01-23T16:45:25.243Z,102780.22
2023-01-23T16:50:24.126Z,102785.41
2023-01-23T16:55:23.112Z,102729.72
2023-01-23T17:00:34.104Z,102713.47
2023-01-23T17:05:30.411Z,102806.81
2023-01-23T17:10:37.833Z,102776.88
2023-01-23T17:15:38.716Z,102759.75
2023-01-23T17:20:33.898Z,102771.72
2023-01-23T17:25:44.978Z,102754.59
2023-01-23T17:30:48.632Z,102575.59
2023-01-23T17:35:46.209Z,102766.53
2023-01-23T17:40:40.733Z,102727.09
2023-01-23T17:45:34.811Z,102790.50
2023-01-23T17:50:28.459Z,102775.09
2023-01-23T17:55:25.644Z,102670.59
2023-01-23T18:00:21.092Z,102797.38
2023-01-23T18:05:20.766Z,102756.25
2023-01-23T18:10:15.427Z,102767.41
2023-01-23T18:15:16.689Z,102819.69
2023-01-23T18:20:19.325Z,102768.28
2023-01-23T18:25:15.916Z,102824.84
2023-01-23T18:30:23.089Z,102805.16
2023-01-23T18:35:30.610Z,102834.28
2023-01-23T18:40:31.152Z,102671.53
2023-01-23T18:45:28.114Z,102733.19
2023-01-23T18:50:29.134Z,102785.47
2023-01-23T18:55:29.952Z,102714.38
2023-01-23T19:00:33.351Z,102860.06
2023-01-23T19:05:32.960Z,102866.06
2023-01-23T19:10:32.502Z,102814.66
2023-01-23T19:15:34.869Z,102794.06
2023-01-23T19:20:34.871Z,102869.50
2023-01-23T19:25:31.644Z,102754.66
2023-01-23T19:30:29.563Z,102857.53
2023-01-23T19:35:25.946Z,102809.53
2023-01-23T19:40:21.098Z,102830.97
2023-01-23T19:45:18.156Z,102785.53
2023-01-23T19:50:19.444Z,102835.28
2023-01-23T19:55:25.041Z,102800.13
2023-01-23T20:00:19.766Z,102841.25
2023-01-23T20:05:13.504Z,102880.75
2023-01-23T20:10:08.566Z,102903.03
2023-01-23T20:15:03.267Z,102875.59
2023-01-23T20:19:57.237Z,102857.59
2023-01-23T20:24:51.589Z,102872.16
2023-01-23T20:29:45.441Z,102899.63
2023-01-23T20:34:40.141Z,102913.31
2023-01-23T20:39:33.364Z,102886.75
2023-01-23T20:44:29.649Z,102824.13
2023-01-23T20:49:27.962Z,102926.22
2023-01-23T20:54:22.619Z,102794.94
2023-01-23T20:59:24.102Z,102879.88
2023-01-23T21:04:17.426Z,102730.66
2023-01-23T21:09:10.627Z,102918.47
2023-01-23T21:14:05.434Z,102894.47
2023-01-23T21:18:58.666Z,102920.19
2023-01-23T21:23:52.550Z,102816.38
2023-01-23T21:28:48.536Z,102895.28
2023-01-23T21:33:44.954Z,102914.16
2023-01-23T21:38:38.367Z,102742.59
2023-01-23T21:43:32.330Z,102891.88
2023-01-23T21:48:28.829Z,102812.94
2023-01-23T21:53:23.517Z,102828.38
2023-01-23T21:58:16.810Z,102818.94
2023-01-23T22:03:10.069Z,102759.75
2023-01-23T22:08:03.351Z,102836.97
2023-01-23T22:12:58.088Z,102916.75
2023-01-23T22:17:51.645Z,102923.63
2023-01-23T22:22:45.012Z,102879.84
2023-01-23T22:27:38.237Z,102835.25
2023-01-23T22:32:33.888Z,102901.31
2023-01-23T22:37:27.181Z,102917.59
2023-01-23T22:42:21.128Z,102946.78
2023-01-23T22:47:14.502Z,102922.75
2023-01-23T22:52:09.440Z,102927.03
2023-01-23T22:57:02.847Z,102937.34
2023-01-23T23:01:56.101Z,102929.63
2023-01-23T23:06:51.487Z,102940.78
2023-01-23T23:11:49.038Z,102902.16
2023-01-23T23:16:45.495Z,102878.16
2023-01-23T23:21:39.171Z,102758.91
2023-01-23T23:26:33.178Z,102935.66
2023-01-23T23:31:28.136Z,102815.56
2023-01-23T23:36:21.451Z,102910.75
2023-01-23T23:41:16.060Z,102882.47
2023-01-23T23:46:11.193Z,102909.06
2023-01-23T23:51:07.792Z,102920.22
2023-01-23T23:56:00.968Z,102918.50
